createdAt,value
2022-09-28T00:01:19.787Z,100.00
2022-09-28T00:03:48.465Z,100.00
2022-09-28T00:06:19.409Z,100.00
2022-09-28T00:08:46.883Z,100.00
2022-09-28T00:11:15.490Z,100.00
2022-09-28T00:13:43.333Z,100.00
2022-09-28T00:16:19.710Z,100.00
2022-09-28T00:18:47.192Z,100.00
2022-09-28T00:21:17.005Z,100.00
2022-09-28T00:24:03.478Z,100.00
2022-09-28T00:26:33.062Z,100.00
2022-09-28T00:29:02.141Z,100.00
2022-09-28T00:31:34.631Z,100.00
2022-09-28T00:34:02.661Z,100.00
2022-09-28T00:36:31.628Z,100.00
2022-09-28T00:38:59.216Z,100.00
2022-09-28T00:41:27.893Z,100.00
2022-09-28T00:44:26.360Z,100.00
2022-09-28T00:47:01.995Z,100.00
2022-09-28T00:49:41.891Z,100.00
2022-09-28T00:52:11.903Z,100.00
2022-09-28T00:54:39.151Z,100.00
2022-09-28T00:57:05.848Z,100.00
2022-09-28T00:59:33.974Z,100.00
2022-09-28T01:02:01.998Z,100.00
2022-09-28T01:04:31.333Z,100.00
2022-09-28T01:06:59.280Z,100.00
2022-09-28T01:09:27.769Z,100.00
2022-09-28T01:11:55.343Z,100.00
2022-09-28T01:14:25.794Z,100.00
2022-09-28T01:17:17.193Z,100.00
2022-09-28T01:20:05.948Z,100.00
2022-09-28T01:22:44.424Z,100.00
2022-09-28T01:25:21.207Z,100.00
2022-09-28T01:27:51.757Z,100.00
2022-09-28T01:30:21.509Z,100.00
2022-09-28T01:33:02.623Z,100.00
2022-09-28T01:35:46.115Z,100.00
2022-09-28T01:38:28.759Z,100.00
2022-09-28T01:40:58.198Z,100.00
2022-09-28T01:43:28.242Z,100.00
2022-09-28T01:46:11.037Z,100.00
2022-09-28T01:48:51.844Z,100.00
2022-09-28T01:51:46.127Z,100.00
2022-09-28T01:54:14.697Z,100.00
2022-09-28T01:57:13.551Z,100.00
2022-09-28T01:59:45.384Z,100.00
2022-09-28T02:02:19.498Z,100.00
2022-09-28T02:04:53.806Z,100.00
2022-09-28T02:07:26.191Z,100.00
2022-09-28T02:09:59.861Z,100.00
2022-09-28T02:12:38.575Z,100.00
2022-09-28T02:15:24.133Z,100.00
2022-09-28T02:17:50.879Z,100.00
2022-09-28T02:20:17.943Z,100.00
2022-09-28T02:22:51.728Z,100.00
2022-09-28T02:25:28.889Z,100.00
2022-09-28T02:28:13.723Z,100.00
2022-09-28T02:30:43.692Z,100.00
2022-09-28T02:33:20.011Z,100.00
2022-09-28T02:35:47.199Z,100.00
2022-09-28T02:38:14.943Z,100.00
2022-09-28T02:40:48.898Z,100.00
2022-09-28T02:43:41.288Z,100.00
2022-09-28T02:46:49.361Z,100.00
2022-09-28T02:49:24.115Z,100.00
2022-09-28T02:52:25.746Z,100.00
2022-09-28T02:55:18.102Z,100.00
2022-09-28T02:58:06.934Z,100.00
2022-09-28T03:01:03.689Z,100.00
2022-09-28T03:03:38.960Z,100.00
2022-09-28T03:06:15.239Z,100.00
2022-09-28T03:09:20.537Z,100.00
2022-09-28T03:11:57.048Z,100.00
2022-09-28T03:14:24.090Z,100.00
2022-09-28T03:16:51.081Z,100.00
2022-09-28T03:19:21.205Z,100.00
2022-09-28T03:21:47.935Z,100.00
2022-09-28T03:24:14.758Z,100.00
2022-09-28T03:26:41.549Z,100.00
2022-09-28T03:29:08.258Z,100.00
2022-09-28T03:31:35.827Z,100.00
2022-09-28T03:34:02.783Z,100.00
2022-09-28T03:36:29.636Z,100.00
2022-09-28T03:38:56.571Z,100.00
2022-09-28T03:41:27.952Z,100.00
2022-09-28T03:43:55.006Z,100.00
2022-09-28T03:46:21.703Z,100.00
2022-09-28T03:48:48.485Z,100.00
2022-09-28T03:51:15.232Z,100.00
2022-09-28T03:53:42.042Z,100.00
2022-09-28T03:56:14.174Z,100.00
2022-09-28T03:58:41.149Z,100.00
2022-09-28T04:01:16.948Z,100.00
2022-09-28T04:03:45.019Z,100.00
2022-09-28T04:06:12.266Z,100.00
2022-09-28T04:08:39.356Z,100.00
2022-09-28T04:11:06.502Z,100.00
2022-09-28T04:13:33.479Z,100.00
2022-09-28T04:16:01.681Z,100.00
2022-09-28T04:18:29.121Z,100.00
2022-09-28T04:21:00.795Z,100.00
2022-09-28T04:23:28.216Z,100.00
2022-09-28T04:25:55.014Z,100.00
2022-09-28T04:28:54.227Z,100.00
2022-09-28T04:31:23.747Z,100.00
2022-09-28T04:33:50.525Z,100.00
2022-09-28T04:36:19.740Z,100.00
2022-09-28T04:38:53.264Z,100.00
2022-09-28T04:41:22.506Z,100.00
2022-09-28T04:43:50.327Z,100.00
2022-09-28T04:46:17.570Z,100.00
2022-09-28T04:48:44.456Z,100.00
2022-09-28T04:51:11.359Z,100.00
2022-09-28T04:53:38.187Z,100.00
2022-09-28T04:56:13.856Z,100.00
2022-09-28T04:58:41.057Z,100.00
2022-09-28T05:01:16.217Z,100.00
2022-09-28T05:03:43.949Z,100.00
2022-09-28T05:06:15.025Z,100.00
2022-09-28T05:08:42.679Z,100.00
2022-09-28T05:11:12.093Z,100.00
2022-09-28T05:13:45.295Z,100.00
2022-09-28T05:16:14.210Z,100.00
2022-09-28T05:18:40.865Z,100.00
2022-09-28T05:21:15.174Z,100.00
2022-09-28T05:23:47.379Z,100.00
2022-09-28T05:26:14.835Z,100.00
2022-09-28T05:28:41.656Z,100.00
2022-09-28T05:31:08.526Z,100.00
2022-09-28T05:33:35.421Z,100.00
2022-09-28T05:36:02.407Z,100.00
2022-09-28T05:38:30.097Z,100.00
2022-09-28T05:40:57.209Z,100.00
2022-09-28T05:43:24.212Z,100.00
2022-09-28T05:45:55.384Z,100.00
2022-09-28T05:48:25.575Z,100.00
2022-09-28T05:50:53.064Z,100.00
2022-09-28T05:53:20.494Z,100.00
2022-09-28T05:55:48.187Z,100.00
2022-09-28T05:58:15.279Z,100.00
2022-09-28T06:00:42.341Z,100.00
2022-09-28T06:03:12.624Z,100.00
2022-09-28T06:05:42.139Z,100.00
2022-09-28T06:08:12.954Z,100.00
2022-09-28T06:10:39.999Z,100.00
2022-09-28T06:13:07.253Z,100.00
2022-09-28T06:15:36.202Z,100.00
2022-09-28T06:18:09.699Z,100.00
2022-09-28T06:20:38.767Z,100.00
2022-09-28T06:23:05.474Z,100.00
2022-09-28T06:25:32.316Z,100.00
2022-09-28T06:28:01.274Z,100.00
2022-09-28T06:30:32.182Z,100.00
2022-09-28T06:33:15.977Z,100.00
2022-09-28T06:39:25.282Z,100.00
2022-09-28T06:41:53.571Z,100.00
2022-09-28T06:44:20.521Z,100.00
2022-09-28T06:46:47.887Z,100.00
2022-09-28T06:49:19.296Z,100.00
2022-09-28T06:51:46.454Z,100.00
2022-09-28T06:54:14.234Z,100.00
2022-09-28T06:56:44.744Z,100.00
2022-09-28T06:59:11.462Z,100.00
2022-09-28T07:01:38.435Z,100.00
2022-09-28T07:04:05.216Z,100.00
2022-09-28T07:06:32.031Z,100.00
2022-09-28T07:09:21.359Z,100.00
2022-09-28T07:11:49.495Z,100.00
2022-09-28T07:14:31.943Z,100.00
2022-09-28T07:17:12.966Z,100.00
2022-09-28T07:19:40.800Z,100.00
2022-09-28T07:22:07.622Z,100.00
2022-09-28T07:24:34.541Z,100.00
2022-09-28T07:27:04.590Z,100.00
2022-09-28T07:29:31.364Z,100.00
2022-09-28T07:31:58.220Z,100.00
2022-09-28T07:34:25.158Z,100.00
2022-09-28T07:36:52.015Z,100.00
2022-09-28T07:39:18.588Z,100.00
2022-09-28T07:41:45.623Z,100.00
2022-09-28T07:44:12.399Z,100.00
2022-09-28T07:46:39.090Z,100.00
2022-09-28T07:49:08.494Z,100.00
2022-09-28T07:51:38.246Z,100.00
2022-09-28T07:54:06.689Z,100.00
2022-09-28T07:56:34.948Z,100.00
2022-09-28T07:59:01.772Z,100.00
2022-09-28T08:01:30.669Z,100.00
2022-09-28T08:03:57.354Z,100.00
2022-09-28T08:06:23.958Z,100.00
2022-09-28T08:08:52.974Z,100.00
2022-09-28T08:11:19.801Z,100.00
2022-09-28T08:13:47.472Z,100.00
2022-09-28T08:16:14.620Z,100.00
2022-09-28T08:18:41.483Z,100.00
2022-09-28T08:21:28.963Z,100.00
2022-09-28T08:23:56.275Z,100.00
2022-09-28T08:26:22.931Z,100.00
2022-09-28T08:28:50.287Z,100.00
2022-09-28T08:31:17.277Z,100.00
2022-09-28T08:33:44.001Z,100.00
2022-09-28T08:36:11.240Z,100.00
2022-09-28T08:38:37.890Z,100.00
2022-09-28T08:41:13.167Z,100.00
2022-09-28T08:44:11.153Z,100.00
2022-09-28T08:46:43.796Z,100.00
2022-09-28T08:49:25.815Z,100.00
2022-09-28T08:52:05.401Z,100.00
2022-09-28T08:54:34.763Z,100.00
2022-09-28T08:57:13.609Z,100.00
2022-09-28T08:59:56.113Z,100.00
2022-09-28T09:02:32.085Z,100.00
2022-09-28T09:05:06.874Z,100.00
2022-09-28T09:07:55.593Z,100.00
2022-09-28T09:10:51.189Z,100.00
2022-09-28T09:13:45.926Z,100.00
2022-09-28T09:16:44.560Z,100.00
2022-09-28T09:19:52.167Z,100.00
2022-09-28T09:22:37.682Z,100.00
2022-09-28T09:25:48.377Z,100.00
2022-09-28T09:28:20.739Z,100.00
2022-09-28T09:30:56.324Z,100.00
2022-09-28T09:34:28.263Z,100.00
2022-09-28T09:37:24.181Z,100.00
2022-09-28T09:40:18.020Z,100.00
2022-09-28T09:43:13.964Z,100.00
2022-09-28T09:45:59.380Z,100.00
2022-09-28T09:48:38.543Z,100.00
2022-09-28T09:51:25.040Z,100.00
2022-09-28T09:54:06.251Z,100.00
2022-09-28T09:56:40.946Z,100.00
2022-09-28T09:59:14.136Z,100.00
2022-09-28T10:01:41.731Z,100.00
2022-09-28T10:04:29.201Z,100.00
2022-09-28T10:07:05.739Z,100.00
2022-09-28T10:09:45.819Z,100.00
2022-09-28T10:12:19.880Z,100.00
2022-09-28T10:14:47.760Z,100.00
2022-09-28T10:17:19.811Z,100.00
2022-09-28T10:19:46.703Z,100.00
2022-09-28T10:22:22.986Z,100.00
2022-09-28T10:24:54.920Z,100.00
2022-09-28T10:27:29.847Z,100.00
2022-09-28T10:30:14.966Z,100.00
2022-09-28T10:32:49.277Z,100.00
2022-09-28T10:35:18.992Z,100.00
2022-09-28T10:38:04.796Z,100.00
2022-09-28T10:40:49.260Z,100.00
2022-09-28T10:43:30.281Z,100.00
2022-09-28T10:46:07.815Z,100.00
2022-09-28T10:48:50.232Z,100.00
2022-09-28T10:51:17.441Z,100.00
2022-09-28T10:54:00.583Z,100.00
2022-09-28T10:56:30.180Z,100.00
2022-09-28T10:58:58.064Z,100.00
2022-09-28T11:01:33.638Z,100.00
2022-09-28T11:04:04.962Z,96.90
2022-09-28T11:06:36.630Z,93.99
2022-09-28T11:09:06.314Z,89.63
2022-09-28T11:11:41.680Z,98.18
2022-09-28T11:14:26.332Z,100.00
2022-09-28T11:17:18.113Z,100.00
2022-09-28T11:19:45.554Z,100.00
2022-09-28T11:22:51.788Z,100.00
2022-09-28T11:25:24.197Z,100.00
2022-09-28T11:27:50.950Z,98.87
2022-09-28T11:30:32.962Z,94.69
2022-09-28T11:33:12.593Z,89.27
2022-09-28T11:36:01.482Z,88.53
2022-09-28T11:38:44.314Z,96.52
2022-09-28T11:41:19.678Z,92.48
2022-09-28T11:44:40.214Z,83.93
2022-09-28T11:47:18.690Z,75.64
2022-09-28T11:50:02.519Z,74.16
2022-09-28T11:52:39.745Z,70.11
2022-09-28T11:55:18.668Z,66.87
2022-09-28T11:57:48.867Z,69.77
2022-09-28T12:00:25.293Z,71.38
2022-09-28T12:03:04.227Z,76.67
2022-09-28T12:05:37.503Z,72.07
2022-09-28T12:08:28.694Z,73.66
2022-09-28T12:10:59.542Z,78.13
2022-09-28T12:13:42.281Z,78.72
2022-09-28T12:17:00.459Z,71.39
2022-09-28T12:19:26.342Z,65.61
2022-09-28T12:22:02.247Z,66.99
2022-09-28T12:24:39.233Z,68.20
2022-09-28T12:27:23.841Z,68.63
2022-09-28T12:30:00.077Z,74.88
2022-09-28T12:32:38.612Z,85.37
2022-09-28T12:35:20.451Z,94.32
2022-09-28T12:38:08.899Z,98.39
2022-09-28T12:41:01.350Z,100.00
2022-09-28T12:44:13.295Z,100.00
2022-09-28T12:46:49.095Z,100.00
2022-09-28T12:50:20.075Z,100.00
2022-09-28T12:52:24.941Z,100.00
2022-09-28T12:55:30.586Z,100.00
2022-09-28T12:58:03.496Z,100.00
2022-09-28T13:00:48.039Z,100.00
2022-09-28T13:03:41.228Z,100.00
2022-09-28T13:06:24.459Z,100.00
2022-09-28T13:08:51.069Z,100.00
2022-09-28T13:11:33.265Z,100.00
2022-09-28T13:14:21.412Z,100.00
2022-09-28T13:17:04.698Z,100.00
2022-09-28T13:19:37.408Z,100.00
2022-09-28T13:22:22.993Z,100.00
2022-09-28T13:24:53.540Z,100.00
2022-09-28T13:27:32.087Z,99.00
2022-09-28T13:30:02.494Z,93.49
2022-09-28T13:32:32.167Z,91.61
2022-09-28T13:35:02.193Z,95.67
2022-09-28T13:37:29.793Z,87.26
2022-09-28T13:40:05.934Z,82.68
2022-09-28T13:42:44.894Z,80.95
2022-09-28T13:45:20.830Z,73.01
2022-09-28T13:48:06.557Z,78.81
2022-09-28T13:50:58.608Z,82.10
2022-09-28T13:53:51.244Z,75.61
2022-09-28T13:56:32.704Z,71.49
2022-09-28T13:59:22.302Z,63.99
2022-09-28T14:02:32.805Z,63.39
2022-09-28T14:05:07.115Z,61.33
2022-09-28T14:07:34.909Z,58.72
2022-09-28T14:10:24.614Z,58.71
2022-09-28T14:12:53.110Z,58.66
2022-09-28T14:15:29.049Z,58.40
2022-09-28T14:18:31.968Z,58.54
2022-09-28T14:21:23.566Z,60.98
2022-09-28T14:24:05.610Z,66.67
2022-09-28T14:27:03.517Z,69.77
2022-09-28T14:29:34.164Z,67.12
2022-09-28T14:32:09.586Z,66.72
2022-09-28T14:34:40.837Z,72.96
2022-09-28T14:37:58.254Z,85.90
2022-09-28T14:40:49.952Z,94.54
2022-09-28T14:43:25.441Z,96.67
2022-09-28T14:46:13.165Z,87.33
2022-09-28T14:48:58.105Z,78.26
2022-09-28T14:51:24.779Z,72.40
2022-09-28T14:54:00.388Z,68.75
2022-09-28T14:56:34.156Z,71.35
2022-09-28T14:59:01.227Z,74.73
2022-09-28T15:01:28.215Z,76.50
2022-09-28T15:03:58.113Z,80.14
2022-09-28T15:06:26.954Z,72.97
2022-09-28T15:08:53.722Z,66.89
2022-09-28T15:11:30.293Z,68.25
2022-09-28T15:14:08.383Z,72.51
2022-09-28T15:16:35.269Z,69.27
2022-09-28T15:19:11.003Z,70.56
2022-09-28T15:21:41.145Z,72.68
2022-09-28T15:24:31.669Z,69.12
2022-09-28T15:26:59.855Z,69.15
2022-09-28T15:29:31.209Z,64.54
2022-09-28T15:31:59.011Z,64.55
2022-09-28T15:34:51.365Z,64.32
2022-09-28T15:37:29.142Z,64.73
2022-09-28T15:39:58.237Z,59.82
2022-09-28T15:42:25.127Z,61.37
2022-09-28T15:45:01.291Z,60.65
2022-09-28T15:47:30.155Z,60.98
2022-09-28T15:50:06.637Z,64.64
2022-09-28T15:52:36.559Z,64.59
2022-09-28T15:55:16.127Z,68.53
2022-09-28T15:57:44.171Z,72.10
2022-09-28T16:00:28.742Z,82.15
2022-09-28T16:03:08.816Z,86.21
2022-09-28T16:05:41.149Z,91.45
2022-09-28T16:08:22.165Z,97.05
2022-09-28T16:11:12.219Z,100.00
2022-09-28T16:14:06.452Z,100.00
2022-09-28T16:16:42.181Z,100.00
2022-09-28T16:19:24.649Z,100.00
2022-09-28T16:21:53.399Z,100.00
2022-09-28T16:24:24.331Z,100.00
2022-09-28T16:27:26.780Z,100.00
2022-09-28T16:30:12.328Z,100.00
2022-09-28T16:32:48.099Z,100.00
2022-09-28T16:35:18.949Z,100.00
2022-09-28T16:37:48.851Z,100.00
2022-09-28T16:40:15.747Z,100.00
2022-09-28T16:42:49.172Z,100.00
2022-09-28T16:45:21.916Z,100.00
2022-09-28T16:47:52.926Z,100.00
2022-09-28T16:50:21.434Z,100.00
2022-09-28T16:53:15.038Z,100.00
2022-09-28T16:55:41.896Z,100.00
2022-09-28T16:58:08.627Z,100.00
2022-09-28T17:00:35.710Z,100.00
2022-09-28T17:03:05.705Z,100.00
2022-09-28T17:05:32.448Z,100.00
2022-09-28T17:08:04.896Z,100.00
2022-09-28T17:11:15.730Z,100.00
2022-09-28T17:13:42.259Z,100.00
2022-09-28T17:16:15.205Z,100.00
2022-09-28T17:18:42.274Z,100.00
2022-09-28T17:21:20.713Z,100.00
2022-09-28T17:23:49.461Z,100.00
2022-09-28T17:26:27.403Z,100.00
2022-09-28T17:28:54.203Z,100.00
2022-09-28T17:31:20.990Z,100.00
2022-09-28T17:33:48.235Z,100.00
2022-09-28T17:36:17.627Z,100.00
2022-09-28T17:38:45.623Z,100.00
2022-09-28T17:41:20.463Z,100.00
2022-09-28T17:43:47.856Z,100.00
2022-09-28T17:46:28.752Z,100.00
2022-09-28T17:48:59.541Z,100.00
2022-09-28T17:51:32.419Z,100.00
2022-09-28T17:54:01.109Z,100.00
2022-09-28T17:56:32.146Z,100.00
2022-09-28T17:59:03.173Z,100.00
2022-09-28T18:01:34.336Z,100.00
2022-09-28T18:04:03.794Z,100.00
2022-09-28T18:06:32.622Z,100.00
2022-09-28T18:09:01.907Z,100.00
2022-09-28T18:11:29.952Z,100.00
2022-09-28T18:13:58.063Z,100.00
2022-09-28T18:16:26.179Z,100.00
2022-09-28T18:18:52.966Z,100.00
2022-09-28T18:21:19.927Z,100.00
2022-09-28T18:23:47.451Z,100.00
2022-09-28T18:26:15.588Z,100.00
2022-09-28T18:28:42.569Z,100.00
2022-09-28T18:31:11.294Z,100.00
2022-09-28T18:33:38.804Z,100.00
2022-09-28T18:36:07.270Z,100.00
2022-09-28T18:38:38.163Z,100.00
2022-09-28T18:41:16.874Z,100.00
2022-09-28T18:43:52.011Z,100.00
2022-09-28T18:46:19.276Z,100.00
2022-09-28T18:48:47.467Z,100.00
2022-09-28T18:51:14.744Z,100.00
2022-09-28T18:53:41.728Z,100.00
2022-09-28T18:56:10.883Z,100.00
2022-09-28T18:58:39.191Z,100.00
2022-09-28T19:01:29.456Z,100.00
2022-09-28T19:04:02.230Z,100.00
2022-09-28T19:06:30.014Z,100.00
2022-09-28T19:08:57.025Z,100.00
2022-09-28T19:11:25.224Z,100.00
2022-09-28T19:13:54.019Z,100.00
2022-09-28T19:16:23.187Z,100.00
2022-09-28T19:18:52.454Z,100.00
2022-09-28T19:21:19.558Z,100.00
2022-09-28T19:23:49.270Z,100.00
2022-09-28T19:26:20.505Z,100.00
2022-09-28T19:28:48.617Z,100.00
2022-09-28T19:31:16.058Z,100.00
2022-09-28T19:33:46.648Z,100.00
2022-09-28T19:36:17.809Z,100.00
2022-09-28T19:38:45.359Z,100.00
2022-09-28T19:41:43.101Z,100.00
2022-09-28T19:44:27.598Z,100.00
2022-09-28T19:47:07.166Z,100.00
2022-09-28T19:49:37.194Z,100.00
2022-09-28T19:52:13.414Z,100.00
2022-09-28T19:54:45.802Z,100.00
2022-09-28T19:57:16.246Z,100.00
2022-09-28T19:59:43.207Z,100.00
2022-09-28T20:02:11.033Z,100.00
2022-09-28T20:04:37.970Z,100.00
2022-09-28T20:07:05.310Z,100.00
2022-09-28T20:09:32.710Z,100.00
2022-09-28T20:11:59.486Z,100.00
2022-09-28T20:14:31.801Z,100.00
2022-09-28T20:17:01.031Z,100.00
2022-09-28T20:19:27.814Z,100.00
2022-09-28T20:21:59.888Z,100.00
2022-09-28T20:24:28.985Z,100.00
2022-09-28T20:26:55.978Z,100.00
2022-09-28T20:29:24.361Z,100.00
2022-09-28T20:31:51.958Z,100.00
2022-09-28T20:34:18.992Z,100.00
2022-09-28T20:36:45.660Z,100.00
2022-09-28T20:39:13.152Z,100.00
2022-09-28T20:41:40.474Z,100.00
2022-09-28T20:44:07.603Z,100.00
2022-09-28T20:46:35.440Z,100.00
2022-09-28T20:49:02.558Z,100.00
2022-09-28T20:51:29.405Z,100.00
2022-09-28T20:53:57.998Z,100.00
2022-09-28T20:56:37.765Z,100.00
2022-09-28T20:59:07.961Z,100.00
2022-09-28T21:01:35.117Z,100.00
2022-09-28T21:04:04.253Z,100.00
2022-09-28T21:06:34.288Z,100.00
2022-09-28T21:09:01.509Z,100.00
2022-09-28T21:11:29.764Z,100.00
2022-09-28T21:14:01.812Z,100.00
2022-09-28T21:16:30.440Z,100.00
2022-09-28T21:18:57.852Z,100.00
2022-09-28T21:21:26.264Z,100.00
2022-09-28T21:23:56.627Z,100.00
2022-09-28T21:26:25.680Z,100.00
2022-09-28T21:28:58.013Z,100.00
2022-09-28T21:31:29.145Z,100.00
2022-09-28T21:33:57.281Z,100.00
2022-09-28T21:36:24.078Z,100.00
2022-09-28T21:38:51.009Z,100.00
2022-09-28T21:41:17.936Z,100.00
2022-09-28T21:43:45.804Z,100.00
2022-09-28T21:46:12.556Z,100.00
2022-09-28T21:48:39.923Z,100.00
2022-09-28T21:51:09.245Z,100.00
2022-09-28T21:53:37.849Z,100.00
2022-09-28T21:56:06.972Z,100.00
2022-09-28T21:58:35.667Z,100.00
2022-09-28T22:01:09.053Z,100.00
2022-09-28T22:03:36.707Z,100.00
2022-09-28T22:06:04.787Z,100.00
2022-09-28T22:08:32.338Z,100.00
2022-09-28T22:11:10.611Z,100.00
2022-09-28T22:13:41.676Z,100.00
2022-09-28T22:16:09.205Z,100.00
2022-09-28T22:18:36.324Z,100.00
2022-09-28T22:21:11.926Z,100.00
2022-09-28T22:23:39.925Z,100.00
2022-09-28T22:26:11.190Z,100.00
2022-09-28T22:28:42.422Z,100.00
2022-09-28T22:31:09.243Z,100.00
2022-09-28T22:33:36.092Z,100.00
2022-09-28T22:36:04.287Z,100.00
2022-09-28T22:38:32.230Z,100.00
2022-09-28T22:40:59.162Z,100.00
2022-09-28T22:43:26.817Z,100.00
2022-09-28T22:46:05.331Z,100.00
2022-09-28T22:48:32.877Z,100.00
2022-09-28T22:50:59.774Z,100.00
2022-09-28T22:53:28.456Z,100.00
2022-09-28T22:55:56.909Z,100.00
2022-09-28T22:58:23.840Z,100.00
2022-09-28T23:00:50.634Z,100.00
2022-09-28T23:03:18.037Z,100.00
2022-09-28T23:05:55.867Z,100.00
2022-09-28T23:08:23.697Z,100.00
2022-09-28T23:10:51.514Z,100.00
2022-09-28T23:13:18.741Z,100.00
2022-09-28T23:15:56.128Z,100.00
2022-09-28T23:18:23.801Z,100.00
2022-09-28T23:20:57.860Z,100.00
2022-09-28T23:23:24.814Z,100.00
2022-09-28T23:25:52.772Z,100.00
2022-09-28T23:28:21.239Z,100.00
2022-09-28T23:30:48.311Z,100.00
2022-09-28T23:33:16.812Z,100.00
2022-09-28T23:35:44.155Z,100.00
2022-09-28T23:38:13.603Z,100.00
2022-09-28T23:40:41.522Z,100.00
2022-09-28T23:43:08.663Z,100.00
2022-09-28T23:45:35.388Z,100.00
2022-09-28T23:48:02.593Z,100.00
2022-09-28T23:50:29.580Z,100.00
2022-09-28T23:52:56.642Z,100.00
2022-09-28T23:55:23.391Z,100.00
2022-09-28T23:57:51.010Z,100.00
